createdAt,value
2023-04-28T00:00:10.188Z,6.93
2023-04-28T00:01:22.195Z,6.72
2023-04-28T00:02:24.929Z,7.00
2023-04-28T00:03:28.711Z,6.90
2023-04-28T00:05:36.013Z,6.70
2023-04-28T00:06:52.647Z,6.57
2023-04-28T00:07:55.396Z,5.90
2023-04-28T00:08:57.879Z,6.40
2023-04-28T00:10:00.417Z,7.10
2023-04-28T00:11:02.924Z,7.07
2023-04-28T00:12:14.955Z,6.90
2023-04-28T00:13:17.431Z,6.82
2023-04-28T00:14:20.082Z,6.55
2023-04-28T00:15:22.600Z,6.93
2023-04-28T00:16:26.001Z,6.20
2023-04-28T00:17:28.651Z,6.53
2023-04-28T00:18:31.424Z,7.03
2023-04-28T00:19:34.825Z,6.70
2023-04-28T00:20:37.600Z,7.18
2023-04-28T00:21:40.840Z,6.80
2023-04-28T00:22:43.280Z,7.15
2023-04-28T00:23:45.722Z,7.03
2023-04-28T00:24:48.428Z,7.85
2023-04-28T00:25:55.165Z,7.68
2023-04-28T00:26:58.765Z,7.57
2023-04-28T00:28:07.668Z,7.82
2023-04-28T00:29:10.186Z,7.40
2023-04-28T00:30:12.949Z,7.90
2023-04-28T00:31:16.710Z,8.05
2023-04-28T00:32:23.068Z,7.57
2023-04-28T00:33:25.784Z,7.88
2023-04-28T00:34:37.660Z,7.15
2023-04-28T00:35:41.308Z,6.75
2023-04-28T00:36:51.081Z,7.18
2023-04-28T00:37:53.445Z,7.75
2023-04-28T00:38:56.224Z,7.97
2023-04-28T00:39:58.922Z,8.07
2023-04-28T00:41:01.289Z,8.25
2023-04-28T00:42:12.113Z,7.65
2023-04-28T00:43:14.544Z,7.88
2023-04-28T00:44:17.085Z,8.65
2023-04-28T00:45:21.022Z,9.15
2023-04-28T00:46:29.486Z,7.75
2023-04-28T00:47:42.354Z,8.52
2023-04-28T00:48:44.884Z,8.95
2023-04-28T00:51:16.614Z,8.68
2023-04-28T00:53:44.917Z,7.95
2023-04-28T00:54:48.910Z,8.35
2023-04-28T00:55:53.370Z,8.43
2023-04-28T00:57:03.353Z,7.47
2023-04-28T00:58:06.864Z,7.40
2023-04-28T00:59:09.385Z,8.07
2023-04-28T01:00:12.424Z,7.90
2023-04-28T01:01:23.897Z,6.90
2023-04-28T01:02:27.370Z,8.00
2023-04-28T01:03:34.301Z,7.57
2023-04-28T01:04:38.018Z,7.88
2023-04-28T01:05:40.885Z,7.63
2023-04-28T01:06:44.187Z,7.85
2023-04-28T01:07:47.327Z,7.88
2023-04-28T01:08:51.267Z,7.47
2023-04-28T01:09:55.287Z,7.82
2023-04-28T01:11:04.073Z,7.80
2023-04-28T01:12:43.717Z,7.57
2023-04-28T01:14:49.984Z,7.53
2023-04-28T01:16:56.906Z,7.53
2023-04-28T01:19:28.153Z,8.07
2023-04-28T01:20:31.286Z,8.00
2023-04-28T01:21:34.751Z,8.52
2023-04-28T01:22:47.755Z,7.95
2023-04-28T01:25:20.446Z,8.45
2023-04-28T01:26:23.538Z,8.38
2023-04-28T01:27:28.190Z,8.70
2023-04-28T01:28:31.862Z,7.97
2023-04-28T01:29:34.330Z,7.95
2023-04-28T01:31:02.057Z,8.32
2023-04-28T01:32:05.627Z,8.15
2023-04-28T01:33:09.807Z,9.00
2023-04-28T01:34:12.868Z,7.68
2023-04-28T01:36:29.654Z,8.18
2023-04-28T01:37:32.722Z,8.57
2023-04-28T01:38:40.890Z,8.63
2023-04-28T01:39:44.225Z,7.90
2023-04-28T01:40:46.693Z,9.20
2023-04-28T01:41:49.400Z,9.40
2023-04-28T01:42:51.901Z,8.75
2023-04-28T01:43:58.221Z,9.23
2023-04-28T01:45:00.992Z,9.70
2023-04-28T01:46:03.514Z,8.43
2023-04-28T01:47:08.910Z,8.40
2023-04-28T01:48:18.789Z,8.75
2023-04-28T01:49:29.710Z,8.27
2023-04-28T01:50:39.496Z,8.45
2023-04-28T01:51:45.074Z,8.73
2023-04-28T01:52:56.464Z,9.15
2023-04-28T01:53:59.575Z,9.15
2023-04-28T01:55:02.093Z,8.80
2023-04-28T01:56:04.709Z,9.48
2023-04-28T01:57:09.929Z,8.60
2023-04-28T01:58:14.047Z,9.02
2023-04-28T01:59:16.792Z,9.38
2023-04-28T02:00:23.075Z,8.80
2023-04-28T02:01:51.119Z,8.02
2023-04-28T02:02:53.793Z,9.13
2023-04-28T02:03:56.531Z,8.63
2023-04-28T02:04:59.989Z,8.85
2023-04-28T02:06:02.747Z,8.48
2023-04-28T02:07:06.139Z,9.02
2023-04-28T02:08:08.680Z,8.85
2023-04-28T02:09:11.520Z,8.52
2023-04-28T02:10:23.746Z,9.07
2023-04-28T02:11:27.069Z,8.45
2023-04-28T02:13:01.005Z,9.48
2023-04-28T02:14:03.570Z,10.07
2023-04-28T02:15:07.648Z,8.77
2023-04-28T02:16:18.848Z,8.45
2023-04-28T02:17:21.352Z,9.07
2023-04-28T02:18:23.845Z,9.15
2023-04-28T02:19:26.241Z,9.25
2023-04-28T02:20:30.731Z,10.20
2023-04-28T02:21:42.366Z,9.35
2023-04-28T02:22:44.795Z,9.43
2023-04-28T02:23:47.219Z,8.30
2023-04-28T02:24:49.819Z,9.15
2023-04-28T02:26:01.603Z,8.77
2023-04-28T02:27:05.415Z,9.32
2023-04-28T02:28:15.549Z,9.60
2023-04-28T02:29:27.893Z,9.07
2023-04-28T02:30:31.182Z,8.68
2023-04-28T02:31:36.959Z,9.13
2023-04-28T02:32:39.447Z,9.23
2023-04-28T02:33:48.314Z,9.35
2023-04-28T02:34:57.009Z,9.00
2023-04-28T02:36:00.864Z,9.10
2023-04-28T02:37:03.496Z,9.25
2023-04-28T02:38:06.958Z,8.57
2023-04-28T02:39:10.249Z,9.63
2023-04-28T02:40:13.037Z,9.35
2023-04-28T02:41:15.648Z,8.98
2023-04-28T02:42:25.257Z,9.43
2023-04-28T02:43:28.749Z,9.70
2023-04-28T02:44:31.702Z,9.15
2023-04-28T02:45:38.514Z,8.98
2023-04-28T02:46:49.006Z,8.93
2023-04-28T02:47:52.428Z,8.70
2023-04-28T02:49:04.017Z,8.43
2023-04-28T02:50:07.343Z,8.90
2023-04-28T02:51:09.848Z,9.30
2023-04-28T02:52:13.836Z,9.40
2023-04-28T02:53:16.533Z,9.00
2023-04-28T02:54:44.078Z,9.23
2023-04-28T02:55:46.801Z,9.75
2023-04-28T02:56:49.187Z,10.45
2023-04-28T02:57:51.776Z,9.30
2023-04-28T02:59:03.028Z,9.57
2023-04-28T03:00:06.267Z,9.93
2023-04-28T03:01:17.062Z,9.98
2023-04-28T03:02:20.985Z,9.80
2023-04-28T03:03:23.964Z,9.45
2023-04-28T03:04:26.600Z,9.65
2023-04-28T03:05:29.353Z,9.80
2023-04-28T03:06:38.831Z,8.50
2023-04-28T03:07:41.790Z,9.20
2023-04-28T03:11:16.892Z,9.35
2023-04-28T03:12:19.491Z,9.23
2023-04-28T03:13:22.528Z,9.90
2023-04-28T03:14:50.987Z,9.13
2023-04-28T03:15:53.499Z,9.65
2023-04-28T03:16:56.583Z,9.90
2023-04-28T03:17:59.322Z,10.23
2023-04-28T03:19:01.833Z,9.43
2023-04-28T03:20:04.939Z,10.05
2023-04-28T03:21:07.551Z,10.23
2023-04-28T03:22:10.388Z,10.60
2023-04-28T03:23:12.812Z,9.95
2023-04-28T03:24:15.496Z,9.68
2023-04-28T03:25:18.617Z,10.13
2023-04-28T03:26:27.290Z,9.88
2023-04-28T03:27:30.793Z,9.25
2023-04-28T03:28:58.773Z,9.70
2023-04-28T03:30:01.475Z,9.57
2023-04-28T03:31:16.189Z,9.45
2023-04-28T03:32:19.899Z,9.68
2023-04-28T03:33:22.660Z,10.60
2023-04-28T03:34:25.438Z,10.38
2023-04-28T03:35:28.259Z,9.38
2023-04-28T03:37:02.025Z,9.80
2023-04-28T03:38:07.200Z,9.40
2023-04-28T03:39:35.087Z,10.63
2023-04-28T03:40:37.624Z,9.43
2023-04-28T03:42:01.426Z,10.00
2023-04-28T03:43:33.570Z,9.63
2023-04-28T03:44:55.197Z,9.63
2023-04-28T03:45:57.797Z,11.02
2023-04-28T03:47:04.190Z,11.00
2023-04-28T03:48:07.302Z,10.38
2023-04-28T03:49:09.752Z,10.38
2023-04-28T03:50:12.161Z,10.73
2023-04-28T03:51:14.763Z,10.43
2023-04-28T03:52:17.685Z,10.63
2023-04-28T03:53:20.123Z,11.05
2023-04-28T03:54:24.317Z,10.27
2023-04-28T03:55:27.433Z,10.48
2023-04-28T03:56:38.840Z,10.00
2023-04-28T03:57:41.936Z,10.18
2023-04-28T03:58:47.237Z,10.10
2023-04-28T03:59:50.005Z,9.80
2023-04-28T04:00:52.414Z,9.90
2023-04-28T04:01:55.191Z,9.05
2023-04-28T04:03:05.431Z,10.05
2023-04-28T04:04:08.166Z,10.38
2023-04-28T04:05:10.911Z,9.73
2023-04-28T04:06:16.222Z,10.88
2023-04-28T04:07:19.157Z,9.98
2023-04-28T04:08:21.899Z,10.65
2023-04-28T04:09:24.347Z,10.65
2023-04-28T04:10:26.884Z,11.40
2023-04-28T04:11:29.782Z,9.95
2023-04-28T04:12:32.381Z,9.82
2023-04-28T04:13:35.099Z,9.70
2023-04-28T04:14:41.136Z,9.20
2023-04-28T04:15:43.669Z,10.65
2023-04-28T04:16:47.898Z,10.32
2023-04-28T04:18:53.771Z,9.27
2023-04-28T04:19:59.488Z,9.52
2023-04-28T04:21:03.344Z,11.10
2023-04-28T04:22:06.381Z,11.52
2023-04-28T04:23:08.946Z,10.65
2023-04-28T04:24:11.474Z,10.73
2023-04-28T04:25:18.194Z,11.20
2023-04-28T04:26:26.439Z,11.45
2023-04-28T04:27:29.871Z,10.55
2023-04-28T04:28:32.308Z,11.48
2023-04-28T04:29:35.131Z,11.10
2023-04-28T04:30:42.846Z,10.35
2023-04-28T04:31:48.235Z,10.48
2023-04-28T04:33:17.185Z,10.88
2023-04-28T04:34:46.124Z,10.85
2023-04-28T04:35:49.151Z,10.85
2023-04-28T04:36:52.877Z,11.73
2023-04-28T04:39:30.636Z,10.30
2023-04-28T04:40:34.549Z,11.20
2023-04-28T04:41:38.058Z,11.73
2023-04-28T04:43:08.590Z,11.30
2023-04-28T04:45:56.960Z,10.82
2023-04-28T04:46:59.912Z,10.93
2023-04-28T04:48:03.770Z,10.95
2023-04-28T04:49:06.844Z,11.75
2023-04-28T04:50:11.608Z,11.57
2023-04-28T04:51:15.328Z,10.88
2023-04-28T04:52:19.412Z,10.68
2023-04-28T04:53:46.749Z,10.68
2023-04-28T04:54:55.543Z,10.38
2023-04-28T04:56:10.582Z,11.05
2023-04-28T04:57:14.622Z,11.35
2023-04-28T04:58:46.864Z,9.60
2023-04-28T05:00:13.473Z,10.85
2023-04-28T05:01:18.074Z,11.13
2023-04-28T05:02:21.669Z,11.35
2023-04-28T05:03:25.347Z,10.02
2023-04-28T05:04:32.940Z,10.70
2023-04-28T05:05:36.377Z,10.40
2023-04-28T05:07:02.211Z,9.63
2023-04-28T05:08:06.371Z,9.52
2023-04-28T05:09:10.688Z,8.93
2023-04-28T05:10:14.841Z,9.43
2023-04-28T05:11:22.050Z,9.93
2023-04-28T05:12:30.490Z,9.90
2023-04-28T05:13:33.670Z,9.82
2023-04-28T05:14:46.050Z,9.73
2023-04-28T05:15:55.596Z,9.88
2023-04-28T05:17:18.918Z,10.15
2023-04-28T05:18:22.828Z,10.68
2023-04-28T05:19:26.239Z,10.50
2023-04-28T05:20:29.168Z,12.13
2023-04-28T05:21:32.990Z,13.48
2023-04-28T05:22:36.729Z,15.90
2023-04-28T05:23:40.064Z,14.68
2023-04-28T05:24:43.294Z,11.63
2023-04-28T05:25:46.861Z,9.85
2023-04-28T05:26:54.559Z,10.05
2023-04-28T05:27:57.650Z,8.30
2023-04-28T05:29:00.318Z,9.20
2023-04-28T05:30:03.273Z,10.13
2023-04-28T05:31:06.513Z,10.38
2023-04-28T05:32:12.063Z,9.82
2023-04-28T05:33:15.645Z,9.38
2023-04-28T05:34:18.911Z,8.88
2023-04-28T05:35:25.937Z,8.20
2023-04-28T05:36:28.583Z,8.70
2023-04-28T05:37:31.076Z,8.32
2023-04-28T05:38:34.167Z,9.02
2023-04-28T05:39:36.778Z,9.98
2023-04-28T05:40:40.848Z,9.90
2023-04-28T05:41:43.556Z,10.43
2023-04-28T05:42:46.965Z,11.68
2023-04-28T05:43:51.396Z,11.88
2023-04-28T05:44:54.768Z,18.92
2023-04-28T05:45:57.734Z,13.57
2023-04-28T05:47:02.538Z,11.20
2023-04-28T05:50:18.603Z,10.63
2023-04-28T05:51:22.817Z,10.10
2023-04-28T05:53:34.973Z,11.13
2023-04-28T05:54:37.479Z,11.00
2023-04-28T05:55:40.055Z,11.10
2023-04-28T05:56:42.678Z,12.93
2023-04-28T05:57:52.514Z,11.05
2023-04-28T05:58:56.524Z,10.00
2023-04-28T05:59:59.502Z,10.35
2023-04-28T06:01:02.367Z,9.93
2023-04-28T06:02:08.338Z,10.45
2023-04-28T06:03:15.275Z,10.82
2023-04-28T06:04:21.590Z,9.73
2023-04-28T06:05:26.657Z,11.32
2023-04-28T06:06:30.643Z,13.00
2023-04-28T06:07:35.238Z,17.67
2023-04-28T06:08:38.596Z,13.43
2023-04-28T06:09:41.164Z,10.90
2023-04-28T06:10:47.272Z,9.38
2023-04-28T06:11:52.353Z,10.70
2023-04-28T06:12:56.079Z,9.50
2023-04-28T06:13:58.683Z,11.15
2023-04-28T06:15:12.869Z,9.32
2023-04-28T06:16:17.207Z,13.57
2023-04-28T06:17:20.145Z,9.10
2023-04-28T06:18:24.659Z,8.88
2023-04-28T06:19:27.708Z,8.32
2023-04-28T06:20:39.219Z,8.32
2023-04-28T06:21:44.405Z,7.85
2023-04-28T06:22:47.934Z,8.63
2023-04-28T06:23:50.728Z,8.38
2023-04-28T06:24:53.923Z,8.10
2023-04-28T06:26:04.647Z,6.97
2023-04-28T06:27:07.863Z,7.35
2023-04-28T06:28:10.604Z,7.35
2023-04-28T06:29:13.381Z,7.72
2023-04-28T06:30:21.925Z,8.65
2023-04-28T06:31:24.471Z,8.48
2023-04-28T06:32:29.528Z,9.35
2023-04-28T06:33:32.576Z,9.68
2023-04-28T06:34:36.060Z,8.57
2023-04-28T06:35:39.387Z,8.82
2023-04-28T06:36:41.981Z,8.68
2023-04-28T06:37:46.526Z,8.43
2023-04-28T06:39:54.289Z,7.82
2023-04-28T06:40:56.799Z,8.18
2023-04-28T06:41:59.466Z,7.22
2023-04-28T06:43:04.222Z,7.93
2023-04-28T06:44:12.181Z,7.65
2023-04-28T06:45:15.006Z,7.55
2023-04-28T06:46:17.621Z,7.68
2023-04-28T06:47:20.204Z,9.20
2023-04-28T06:48:22.924Z,8.32
2023-04-28T06:49:25.603Z,9.23
2023-04-28T06:50:33.498Z,9.30
2023-04-28T06:51:36.481Z,9.00
2023-04-28T06:52:41.873Z,8.80
2023-04-28T06:53:44.459Z,8.07
2023-04-28T06:54:46.828Z,8.35
2023-04-28T06:55:49.281Z,8.38
2023-04-28T06:56:51.967Z,9.10
2023-04-28T06:57:58.190Z,8.05
2023-04-28T06:59:03.801Z,8.20
2023-04-28T07:00:09.657Z,7.88
2023-04-28T07:01:21.708Z,6.72
2023-04-28T07:02:29.837Z,7.05
2023-04-28T07:03:51.872Z,7.65
2023-04-28T07:05:10.981Z,7.32
2023-04-28T07:06:40.712Z,7.28
2023-04-28T07:07:58.732Z,7.00
2023-04-28T07:09:36.476Z,7.70
2023-04-28T07:10:53.700Z,7.88
2023-04-28T07:11:59.669Z,7.43
2023-04-28T07:13:04.448Z,6.82
2023-04-28T07:14:09.672Z,6.53
2023-04-28T07:15:14.874Z,7.07
2023-04-28T07:16:24.673Z,7.03
2023-04-28T07:17:30.657Z,6.75
2023-04-28T07:18:37.842Z,7.50
2023-04-28T07:19:42.622Z,7.50
2023-04-28T07:20:47.502Z,7.13
2023-04-28T07:21:55.045Z,7.50
2023-04-28T07:22:59.978Z,6.22
2023-04-28T07:24:09.194Z,7.03
2023-04-28T07:25:15.899Z,6.70
2023-04-28T07:26:22.179Z,6.47
2023-04-28T07:27:29.568Z,6.28
2023-04-28T07:28:38.953Z,6.68
2023-04-28T07:29:45.436Z,6.82
2023-04-28T07:30:50.946Z,6.25
2023-04-28T07:31:58.589Z,6.32
2023-04-28T07:33:07.503Z,6.78
2023-04-28T07:34:21.104Z,6.65
2023-04-28T07:35:27.122Z,7.30
2023-04-28T07:36:33.987Z,5.88
2023-04-28T07:37:52.653Z,6.45
2023-04-28T07:38:58.678Z,7.15
2023-04-28T07:40:08.196Z,6.72
2023-04-28T07:41:14.575Z,6.20
2023-04-28T07:42:21.528Z,6.38
2023-04-28T07:43:27.341Z,6.10
2023-04-28T07:44:37.200Z,6.22
2023-04-28T07:45:43.232Z,5.80
2023-04-28T07:47:07.113Z,5.68
2023-04-28T07:48:29.391Z,5.45
2023-04-28T07:49:38.817Z,5.13
2023-04-28T07:50:44.565Z,6.90
2023-04-28T07:51:51.370Z,5.70
2023-04-28T07:52:59.117Z,5.78
2023-04-28T07:59:42.556Z,5.47
2023-04-28T08:00:49.297Z,4.75
2023-04-28T08:01:55.106Z,5.38
2023-04-28T08:03:01.494Z,4.97
2023-04-28T08:04:07.624Z,5.15
2023-04-28T08:05:13.790Z,5.55
2023-04-28T08:06:20.549Z,5.00
2023-04-28T08:07:31.606Z,5.15
2023-04-28T08:08:37.971Z,5.88
2023-04-28T08:09:48.557Z,6.03
2023-04-28T08:11:01.630Z,5.93
2023-04-28T08:12:06.825Z,5.15
2023-04-28T08:13:19.987Z,5.32
2023-04-28T08:14:32.306Z,6.03
2023-04-28T08:15:38.376Z,7.32
2023-04-28T08:16:45.727Z,5.65
2023-04-28T08:17:54.871Z,5.93
2023-04-28T08:19:01.674Z,5.57
2023-04-28T08:20:13.543Z,6.40
2023-04-28T08:21:19.518Z,5.95
2023-04-28T08:22:35.561Z,5.78
2023-04-28T08:23:42.937Z,6.07
2023-04-28T08:34:01.354Z,6.43
2023-04-28T08:35:07.448Z,6.20
2023-04-28T08:36:16.209Z,6.13
2023-04-28T08:37:22.991Z,6.05
2023-04-28T08:38:35.993Z,6.30
2023-04-28T08:39:42.008Z,5.95
2023-04-28T08:40:48.690Z,6.93
2023-04-28T08:41:55.044Z,6.70
2023-04-28T08:43:04.578Z,6.03
2023-04-28T08:44:22.408Z,5.68
2023-04-28T08:45:46.433Z,5.45
2023-04-28T08:46:52.416Z,5.28
2023-04-28T08:48:01.724Z,4.55
2023-04-28T08:49:10.074Z,6.03
2023-04-28T08:50:17.285Z,5.03
2023-04-28T08:51:30.937Z,4.97
2023-04-28T08:52:37.993Z,5.75
2023-04-28T08:54:11.719Z,5.80
2023-04-28T08:55:19.904Z,4.85
2023-04-28T08:56:29.623Z,5.47
2023-04-28T08:57:49.983Z,5.53
2023-04-28T08:58:58.758Z,5.80
2023-04-28T09:00:05.931Z,5.40
2023-04-28T09:01:11.150Z,5.30
2023-04-28T09:02:18.670Z,4.35
2023-04-28T09:03:24.887Z,4.63
2023-04-28T09:04:33.739Z,5.07
2023-04-28T09:05:40.158Z,4.38
2023-04-28T09:06:48.756Z,4.82
2023-04-28T09:07:56.974Z,5.15
2023-04-28T09:09:32.582Z,4.80
2023-04-28T09:10:42.283Z,5.10
2023-04-28T09:12:03.766Z,5.05
2023-04-28T09:13:10.124Z,4.97
2023-04-28T09:14:16.264Z,4.97
2023-04-28T09:15:38.735Z,5.20
2023-04-28T09:16:48.251Z,5.13
2023-04-28T09:17:55.484Z,4.97
2023-04-28T09:19:07.908Z,5.10
2023-04-28T09:20:34.078Z,5.90
2023-04-28T09:22:24.532Z,5.50
2023-04-28T09:23:31.272Z,5.20
2023-04-28T09:24:41.621Z,5.88
2023-04-28T09:26:05.692Z,5.35
2023-04-28T09:27:13.213Z,4.93
2023-04-28T09:28:24.547Z,5.20
2023-04-28T09:29:31.429Z,5.68
2023-04-28T09:30:43.288Z,5.30
2023-04-28T09:31:52.693Z,5.22
2023-04-28T09:33:11.359Z,4.03
2023-04-28T09:34:17.175Z,3.88
2023-04-28T09:35:42.876Z,4.07
2023-04-28T09:36:52.892Z,3.88
2023-04-28T09:38:06.137Z,3.85
2023-04-28T09:39:33.261Z,4.45
2023-04-28T09:41:09.019Z,4.00
2023-04-28T09:42:36.686Z,3.85
2023-04-28T09:43:42.898Z,4.90
2023-04-28T09:44:55.364Z,4.55
2023-04-28T09:46:11.131Z,4.60
2023-04-28T09:47:26.698Z,5.22
2023-04-28T09:48:38.996Z,4.93
2023-04-28T09:50:07.155Z,4.60
2023-04-28T09:51:13.295Z,4.57
2023-04-28T09:52:20.490Z,4.32
2023-04-28T09:53:27.225Z,5.47
2023-04-28T09:54:35.702Z,4.97
2023-04-28T09:55:46.491Z,4.38
2023-04-28T09:56:52.978Z,4.35
2023-04-28T09:58:04.579Z,3.92
2023-04-28T09:59:15.707Z,4.40
2023-04-28T10:00:47.378Z,4.15
2023-04-28T10:01:55.671Z,4.93
2023-04-28T10:03:01.778Z,5.00
2023-04-28T10:04:08.747Z,4.10
2023-04-28T10:05:20.338Z,4.65
2023-04-28T10:06:29.206Z,4.07
2023-04-28T10:07:37.436Z,5.43
2023-04-28T10:08:44.297Z,4.28
2023-04-28T10:09:56.497Z,4.57
2023-04-28T10:11:04.714Z,4.55
2023-04-28T10:12:14.722Z,4.75
2023-04-28T10:13:48.013Z,4.97
2023-04-28T10:14:55.886Z,4.35
2023-04-28T10:16:03.020Z,4.57
2023-04-28T10:17:13.953Z,4.32
2023-04-28T10:18:20.693Z,4.43
2023-04-28T10:19:26.186Z,4.30
2023-04-28T10:20:32.250Z,4.18
2023-04-28T10:21:44.170Z,4.25
2023-04-28T10:23:13.755Z,4.78
2023-04-28T10:24:26.223Z,3.97
2023-04-28T10:25:34.694Z,3.92
2023-04-28T10:27:13.179Z,3.70
2023-04-28T10:28:19.889Z,3.83
2023-04-28T10:29:27.997Z,3.70
2023-04-28T10:30:34.174Z,4.20
2023-04-28T10:31:40.659Z,3.80
2023-04-28T10:32:48.968Z,4.13
2023-04-28T10:34:00.829Z,3.13
2023-04-28T10:35:39.759Z,3.40
2023-04-28T10:36:56.168Z,3.15
2023-04-28T10:38:15.270Z,3.60
2023-04-28T10:39:23.674Z,3.50
2023-04-28T10:40:35.938Z,3.28
2023-04-28T10:41:43.621Z,3.45
2023-04-28T10:42:59.778Z,4.00
2023-04-28T10:44:34.641Z,3.90
2023-04-28T10:45:56.759Z,4.22
2023-04-28T10:47:12.006Z,3.95
2023-04-28T10:48:19.444Z,3.95
2023-04-28T10:49:59.861Z,3.40
2023-04-28T10:51:09.481Z,3.80
2023-04-28T10:52:47.937Z,2.92
2023-04-28T10:54:10.101Z,3.38
2023-04-28T10:55:38.654Z,3.33
2023-04-28T10:57:17.956Z,3.40
2023-04-28T10:58:48.100Z,3.58
2023-04-28T10:59:53.858Z,3.33
2023-04-28T11:01:21.019Z,3.50
2023-04-28T11:02:44.316Z,3.45
2023-04-28T11:04:16.685Z,2.83
2023-04-28T11:05:22.670Z,3.63
2023-04-28T11:06:41.189Z,3.63
2023-04-28T11:08:26.009Z,3.40
2023-04-28T11:09:35.288Z,3.25
2023-04-28T11:11:16.025Z,3.67
2023-04-28T11:12:42.413Z,2.78
2023-04-28T11:13:48.766Z,2.90
2023-04-28T11:14:54.998Z,3.28
2023-04-28T11:16:31.897Z,3.08
2023-04-28T11:17:43.121Z,3.20
2023-04-28T11:19:02.042Z,3.20
2023-04-28T11:20:12.942Z,3.15
2023-04-28T11:21:29.546Z,2.88
2023-04-28T11:22:45.260Z,3.10
2023-04-28T11:23:54.440Z,2.78
2023-04-28T11:25:07.259Z,3.70
2023-04-28T11:26:20.859Z,3.00
2023-04-28T11:27:32.836Z,3.35
2023-04-28T11:28:52.759Z,2.80
2023-04-28T11:30:07.556Z,3.20
2023-04-28T11:31:40.902Z,3.30
2023-04-28T11:32:47.919Z,3.10
2023-04-28T11:34:15.632Z,3.20
2023-04-28T11:35:21.176Z,3.10
2023-04-28T11:36:34.050Z,3.13
2023-04-28T11:37:49.563Z,2.65
2023-04-28T11:38:56.190Z,3.35
2023-04-28T11:41:20.596Z,3.25
2023-04-28T11:42:23.047Z,3.08
2023-04-28T11:43:43.978Z,3.33
2023-04-28T11:44:53.604Z,3.53
2023-04-28T11:45:56.551Z,3.40
2023-04-28T11:47:01.579Z,3.22
2023-04-28T11:48:22.362Z,2.85
2023-04-28T11:49:25.223Z,3.00
2023-04-28T11:50:37.427Z,3.75
2023-04-28T11:51:50.442Z,3.05
2023-04-28T11:52:53.941Z,2.80
2023-04-28T11:53:56.600Z,2.83
2023-04-28T11:55:00.610Z,2.80
2023-04-28T11:56:09.776Z,3.08
2023-04-28T11:57:24.205Z,2.88
2023-04-28T11:58:29.192Z,3.40
2023-04-28T11:59:34.254Z,3.10
2023-04-28T12:00:41.877Z,3.20
2023-04-28T12:01:45.716Z,3.00
2023-04-28T12:02:48.869Z,3.05
2023-04-28T12:03:51.665Z,3.17
2023-04-28T12:04:54.295Z,3.38
2023-04-28T12:05:57.551Z,3.42
2023-04-28T12:07:04.043Z,3.08
2023-04-28T12:08:06.797Z,3.78
2023-04-28T12:09:21.626Z,3.53
2023-04-28T12:10:24.314Z,3.47
2023-04-28T12:11:26.846Z,3.47
2023-04-28T12:12:45.460Z,3.90
2023-04-28T12:14:07.909Z,3.83
2023-04-28T12:15:10.759Z,5.97
2023-04-28T12:16:14.179Z,4.10
2023-04-28T12:17:31.515Z,3.25
2023-04-28T12:18:35.252Z,3.25
2023-04-28T12:19:45.939Z,3.67
2023-04-28T12:20:48.453Z,3.25
2023-04-28T12:22:07.640Z,3.13
2023-04-28T12:23:10.219Z,3.38
2023-04-28T12:24:22.689Z,3.45
2023-04-28T12:25:25.210Z,3.08
2023-04-28T12:26:27.738Z,3.28
2023-04-28T12:27:31.410Z,3.03
2023-04-28T12:28:40.809Z,3.00
2023-04-28T12:29:46.538Z,3.05
2023-04-28T12:30:49.908Z,3.67
2023-04-28T12:31:53.371Z,3.63
2023-04-28T12:32:57.127Z,3.25
2023-04-28T12:33:59.726Z,3.75
2023-04-28T12:35:02.356Z,3.20
2023-04-28T12:36:06.145Z,2.88
2023-04-28T12:38:12.092Z,2.83
2023-04-28T12:39:23.277Z,2.97
2023-04-28T12:40:29.728Z,3.53
2023-04-28T12:41:32.874Z,3.20
2023-04-28T12:42:35.858Z,3.30
2023-04-28T12:43:38.324Z,2.90
2023-04-28T12:44:41.018Z,3.40
2023-04-28T12:46:06.261Z,3.28
2023-04-28T12:47:11.698Z,2.80
2023-04-28T12:48:26.907Z,3.42
2023-04-28T12:49:39.467Z,3.17
2023-04-28T12:50:50.654Z,2.90
2023-04-28T12:51:57.139Z,3.53
2023-04-28T12:53:00.026Z,3.13
2023-04-28T12:54:07.333Z,3.72
2023-04-28T12:55:19.313Z,3.53
2023-04-28T12:56:22.107Z,3.25
2023-04-28T12:57:39.936Z,2.78
2023-04-28T12:58:42.506Z,3.13
2023-04-28T12:59:47.365Z,3.50
2023-04-28T13:00:49.892Z,2.70
2023-04-28T13:01:53.007Z,3.15
2023-04-28T13:02:59.647Z,2.60
2023-04-28T13:04:02.540Z,2.97
2023-04-28T13:05:05.555Z,2.85
2023-04-28T13:06:11.298Z,3.00
2023-04-28T13:07:22.193Z,2.95
2023-04-28T13:08:32.504Z,2.80
2023-04-28T13:09:37.899Z,2.90
2023-04-28T13:11:16.202Z,2.80
2023-04-28T13:12:54.349Z,2.50
2023-04-28T13:13:57.446Z,2.67
2023-04-28T13:15:02.259Z,2.72
2023-04-28T13:16:07.886Z,2.72
2023-04-28T13:17:11.061Z,3.90
2023-04-28T13:18:13.532Z,2.53
2023-04-28T13:19:36.914Z,2.88
2023-04-28T13:20:46.922Z,2.60
2023-04-28T13:21:49.713Z,2.67
2023-04-28T13:22:59.896Z,2.75
2023-04-28T13:24:27.640Z,2.95
2023-04-28T13:25:30.373Z,2.83
2023-04-28T13:26:33.212Z,3.10
2023-04-28T13:27:47.185Z,3.05
2023-04-28T13:28:56.316Z,2.78
2023-04-28T13:30:01.635Z,2.92
2023-04-28T13:31:06.618Z,3.03
2023-04-28T13:32:09.369Z,2.78
2023-04-28T13:33:14.593Z,3.10
2023-04-28T13:34:19.026Z,2.67
2023-04-28T13:35:23.419Z,2.90
2023-04-28T13:36:27.118Z,2.83
2023-04-28T13:37:42.877Z,3.28
2023-04-28T13:38:49.058Z,2.88
2023-04-28T13:39:59.638Z,3.72
2023-04-28T13:41:04.600Z,3.10
2023-04-28T13:42:09.935Z,2.72
2023-04-28T13:43:12.990Z,2.72
2023-04-28T13:44:16.102Z,2.97
2023-04-28T13:45:20.100Z,2.90
2023-04-28T13:46:48.878Z,2.90
2023-04-28T13:47:51.328Z,2.63
2023-04-28T13:48:54.409Z,2.47
2023-04-28T13:49:57.351Z,3.10
2023-04-28T13:50:59.974Z,3.67
2023-04-28T13:52:06.486Z,2.80
2023-04-28T13:53:09.345Z,2.95
2023-04-28T13:54:11.981Z,3.13
2023-04-28T13:55:14.886Z,2.80
2023-04-28T13:56:17.391Z,3.03
2023-04-28T13:57:20.125Z,3.28
2023-04-28T13:58:35.391Z,3.05
2023-04-28T13:59:38.176Z,3.13
2023-04-28T14:00:51.786Z,3.28
2023-04-28T14:01:54.252Z,2.70
2023-04-28T14:02:57.195Z,3.20
2023-04-28T14:04:02.885Z,3.20
2023-04-28T14:05:14.581Z,2.90
2023-04-28T14:06:23.950Z,2.95
2023-04-28T14:07:26.930Z,3.03
2023-04-28T14:08:30.253Z,2.80
2023-04-28T14:09:33.094Z,2.80
2023-04-28T14:10:41.856Z,2.60
2023-04-28T14:11:44.912Z,2.72
2023-04-28T14:12:47.433Z,3.10
2023-04-28T14:13:50.099Z,2.70
2023-04-28T14:15:00.208Z,2.53
2023-04-28T14:16:06.156Z,3.55
2023-04-28T14:17:37.050Z,3.30
2023-04-28T14:18:41.527Z,3.08
2023-04-28T14:19:44.820Z,2.95
2023-04-28T14:20:54.776Z,2.72
2023-04-28T14:23:01.210Z,3.15
2023-04-28T14:24:03.869Z,2.70
2023-04-28T14:25:07.151Z,3.15
2023-04-28T14:26:09.742Z,3.38
2023-04-28T14:27:13.114Z,3.00
2023-04-28T14:28:16.522Z,2.80
2023-04-28T14:29:19.010Z,2.95
2023-04-28T14:30:22.629Z,3.10
2023-04-28T14:31:25.435Z,3.20
2023-04-28T14:32:28.471Z,3.30
2023-04-28T14:33:37.981Z,3.10
2023-04-28T14:34:40.756Z,3.88
2023-04-28T14:35:43.221Z,5.05
2023-04-28T14:36:46.950Z,4.43
2023-04-28T14:37:50.121Z,3.28
2023-04-28T14:38:52.801Z,2.65
2023-04-28T14:39:55.205Z,2.88
2023-04-28T14:40:57.943Z,3.10
2023-04-28T14:42:08.609Z,3.20
2023-04-28T14:43:11.693Z,3.08
2023-04-28T14:44:14.164Z,3.10
2023-04-28T14:45:16.863Z,2.95
2023-04-28T14:46:23.124Z,3.20
2023-04-28T14:47:27.543Z,3.22
2023-04-28T14:48:30.335Z,2.58
2023-04-28T14:49:33.209Z,2.58
2023-04-28T14:50:36.286Z,2.80
2023-04-28T14:51:38.840Z,2.50
2023-04-28T14:52:41.429Z,2.80
2023-04-28T14:53:43.919Z,2.95
2023-04-28T14:54:47.482Z,3.17
2023-04-28T14:56:01.976Z,2.88
2023-04-28T14:57:25.688Z,2.97
2023-04-28T14:58:41.127Z,3.00
2023-04-28T15:00:00.034Z,2.60
2023-04-28T15:01:51.574Z,3.30
2023-04-28T15:02:55.032Z,2.60
2023-04-28T15:04:02.154Z,3.55
2023-04-28T15:05:21.955Z,3.30
2023-04-28T15:06:36.349Z,3.75
2023-04-28T15:08:03.916Z,3.22
2023-04-28T15:09:06.971Z,3.03
2023-04-28T15:10:09.489Z,2.70
2023-04-28T15:11:12.333Z,2.78
2023-04-28T15:12:22.594Z,2.60
2023-04-28T15:13:25.778Z,3.20
2023-04-28T15:14:29.158Z,2.72
2023-04-28T15:15:32.232Z,2.58
2023-04-28T15:16:35.121Z,2.80
2023-04-28T15:17:37.722Z,3.10
2023-04-28T15:18:41.120Z,2.78
2023-04-28T15:20:04.854Z,2.72
2023-04-28T15:21:22.111Z,3.42
2023-04-28T15:22:24.998Z,3.72
2023-04-28T15:23:27.775Z,3.13
2023-04-28T15:24:30.833Z,3.58
2023-04-28T15:25:33.569Z,3.00
2023-04-28T15:26:36.089Z,3.15
2023-04-28T15:27:39.010Z,3.10
2023-04-28T15:28:41.546Z,3.20
2023-04-28T15:29:44.469Z,3.05
2023-04-28T15:30:47.251Z,2.90
2023-04-28T15:31:53.292Z,3.30
2023-04-28T15:32:56.323Z,3.58
2023-04-28T15:33:58.967Z,2.90
2023-04-28T15:35:11.370Z,2.88
2023-04-28T15:36:13.973Z,3.13
2023-04-28T15:37:38.652Z,3.10
2023-04-28T15:38:42.878Z,2.90
2023-04-28T15:39:45.895Z,3.22
2023-04-28T15:40:50.076Z,3.08
2023-04-28T15:41:53.397Z,3.38
2023-04-28T15:42:56.093Z,3.15